sensor_id;sensor_type;location;lat;lon;timestamp;P1;durP1;ratioP1;P2;durP2;ratioP2
44446;SDS011;30152;52.066;5.358;2023-05-20T06:57:09;9.27;;;3.67;;
44446;SDS011;30152;52.066;5.358;2023-05-20T06:59:35;8.38;;;3.80;;
44446;SDS011;30152;52.066;5.358;2023-05-20T07:02:01;11.27;;;3.72;;
44446;SDS011;30152;52.066;5.358;2023-05-20T07:04:27;9.75;;;3.67;;
44446;SDS011;30152;52.066;5.358;2023-05-20T07:06:54;7.85;;;3.15;;
44446;SDS011;30152;52.066;5.358;2023-05-20T07:09:19;8.68;;;3.70;;
44446;SDS011;30152;52.066;5.358;2023-05-20T07:11:45;11.43;;;3.90;;
44446;SDS011;30152;52.066;5.358;2023-05-20T07:14:11;8.50;;;4.25;;
44446;SDS011;30152;52.066;5.358;2023-05-20T07:16:36;9.35;;;3.20;;
44446;SDS011;30152;52.066;5.358;2023-05-20T07:19:02;8.25;;;3.42;;
44446;SDS011;30152;52.066;5.358;2023-05-20T07:21:28;7.38;;;3.10;;
44446;SDS011;30152;52.066;5.358;2023-05-20T07:23:54;8.00;;;3.28;;
44446;SDS011;30152;52.066;5.358;2023-05-20T07:26:20;7.80;;;3.25;;
44446;SDS011;30152;52.066;5.358;2023-05-20T07:28:46;9.85;;;3.05;;
44446;SDS011;30152;52.066;5.358;2023-05-20T07:31:12;7.72;;;3.22;;
44446;SDS011;30152;52.066;5.358;2023-05-20T07:33:38;10.27;;;3.00;;
44446;SDS011;30152;52.066;5.358;2023-05-20T07:36:04;7.28;;;2.53;;
44446;SDS011;30152;52.066;5.358;2023-05-20T07:38:30;9.27;;;2.75;;
44446;SDS011;30152;52.066;5.358;2023-05-20T07:40:56;7.95;;;2.85;;
44446;SDS011;30152;52.066;5.358;2023-05-20T07:43:22;7.07;;;2.90;;
44446;SDS011;30152;52.066;5.358;2023-05-20T07:45:47;6.85;;;2.78;;
44446;SDS011;30152;52.066;5.358;2023-05-20T07:48:13;6.45;;;2.38;;
44446;SDS011;30152;52.066;5.358;2023-05-20T07:50:40;9.13;;;2.78;;
44446;SDS011;30152;52.066;5.358;2023-05-20T07:53:06;9.60;;;2.70;;
44446;SDS011;30152;52.066;5.358;2023-05-20T07:55:34;8.55;;;2.28;;
44446;SDS011;30152;52.066;5.358;2023-05-20T07:58:00;8.73;;;2.78;;
44446;SDS011;30152;52.066;5.358;2023-05-20T08:00:26;6.57;;;2.17;;
44446;SDS011;30152;52.066;5.358;2023-05-20T08:02:52;9.95;;;2.53;;
44446;SDS011;30152;52.066;5.358;2023-05-20T08:05:17;7.28;;;2.72;;
44446;SDS011;30152;52.066;5.358;2023-05-20T08:07:43;7.10;;;2.45;;
44446;SDS011;30152;52.066;5.358;2023-05-20T08:10:09;5.80;;;2.45;;
44446;SDS011;30152;52.066;5.358;2023-05-20T08:12:35;6.28;;;2.42;;
44446;SDS011;30152;52.066;5.358;2023-05-20T08:15:01;6.22;;;2.20;;
44446;SDS011;30152;52.066;5.358;2023-05-20T08:17:27;6.10;;;2.30;;
44446;SDS011;30152;52.066;5.358;2023-05-20T08:19:53;6.20;;;2.35;;
44446;SDS011;30152;52.066;5.358;2023-05-20T08:22:19;4.90;;;1.95;;
44446;SDS011;30152;52.066;5.358;2023-05-20T08:24:45;7.85;;;2.00;;
44446;SDS011;30152;52.066;5.358;2023-05-20T08:27:11;7.07;;;1.70;;
44446;SDS011;30152;52.066;5.358;2023-05-20T08:29:37;5.95;;;1.90;;
44446;SDS011;30152;52.066;5.358;2023-05-20T08:32:03;5.65;;;2.00;;
44446;SDS011;30152;52.066;5.358;2023-05-20T08:34:28;7.10;;;2.22;;
44446;SDS011;30152;52.066;5.358;2023-05-20T08:36:54;5.38;;;1.85;;
44446;SDS011;30152;52.066;5.358;2023-05-20T08:39:21;8.27;;;1.88;;
44446;SDS011;30152;52.066;5.358;2023-05-20T08:41:47;11.60;;;1.60;;
44446;SDS011;30152;52.066;5.358;2023-05-20T08:44:13;5.90;;;1.77;;
44446;SDS011;30152;52.066;5.358;2023-05-20T08:46:41;7.68;;;1.90;;
44446;SDS011;30152;52.066;5.358;2023-05-20T08:49:08;5.18;;;1.60;;
44446;SDS011;30152;52.066;5.358;2023-05-20T08:51:35;4.88;;;1.60;;
44446;SDS011;30152;52.066;5.358;2023-05-20T08:54:01;12.45;;;2.20;;
44446;SDS011;30152;52.066;5.358;2023-05-20T08:56:27;6.55;;;1.70;;
44446;SDS011;30152;52.066;5.358;2023-05-20T08:58:53;6.07;;;2.05;;
44446;SDS011;30152;52.066;5.358;2023-05-20T09:01:22;5.53;;;1.73;;
44446;SDS011;30152;52.066;5.358;2023-05-20T09:03:49;7.45;;;1.83;;
44446;SDS011;30152;52.066;5.358;2023-05-20T09:06:16;6.68;;;1.95;;
44446;SDS011;30152;52.066;5.358;2023-05-20T09:08:45;8.13;;;2.28;;
44446;SDS011;30152;52.066;5.358;2023-05-20T09:11:11;8.60;;;2.15;;
44446;SDS011;30152;52.066;5.358;2023-05-20T09:13:37;5.53;;;1.40;;
44446;SDS011;30152;52.066;5.358;2023-05-20T09:16:03;8.23;;;1.60;;
44446;SDS011;30152;52.066;5.358;2023-05-20T09:18:29;4.80;;;1.45;;
44446;SDS011;30152;52.066;5.358;2023-05-20T09:20:54;5.30;;;1.80;;
44446;SDS011;30152;52.066;5.358;2023-05-20T09:23:21;7.38;;;2.30;;
44446;SDS011;30152;52.066;5.358;2023-05-20T09:25:48;5.13;;;1.90;;
44446;SDS011;30152;52.066;5.358;2023-05-20T09:28:15;6.25;;;1.80;;
44446;SDS011;30152;52.066;5.358;2023-05-20T09:30:41;8.27;;;2.15;;
44446;SDS011;30152;52.066;5.358;2023-05-20T09:33:07;6.35;;;2.60;;
44446;SDS011;30152;52.066;5.358;2023-05-20T09:35:35;6.80;;;1.67;;
44446;SDS011;30152;52.066;5.358;2023-05-20T09:38:01;7.20;;;1.60;;
44446;SDS011;30152;52.066;5.358;2023-05-20T09:40:29;9.18;;;1.75;;
44446;SDS011;30152;52.066;5.358;2023-05-20T09:42:56;5.65;;;1.80;;
44446;SDS011;30152;52.066;5.358;2023-05-20T09:45:32;7.35;;;1.75;;
44446;SDS011;30152;52.066;5.358;2023-05-20T09:47:58;6.53;;;1.80;;
44446;SDS011;30152;52.066;5.358;2023-05-20T09:50:25;6.32;;;1.70;;
44446;SDS011;30152;52.066;5.358;2023-05-20T09:52:53;5.30;;;2.10;;
44446;SDS011;30152;52.066;5.358;2023-05-20T09:55:20;5.28;;;1.65;;
44446;SDS011;30152;52.066;5.358;2023-05-20T09:57:48;10.13;;;2.03;;
44446;SDS011;30152;52.066;5.358;2023-05-20T10:00:14;5.57;;;2.00;;
44446;SDS011;30152;52.066;5.358;2023-05-20T10:02:43;7.32;;;1.63;;
44446;SDS011;30152;52.066;5.358;2023-05-20T10:05:15;6.35;;;1.83;;
44446;SDS011;30152;52.066;5.358;2023-05-20T10:16:07;4.80;;;1.83;;
44446;SDS011;30152;52.066;5.358;2023-05-20T10:18:57;6.47;;;2.00;;
44446;SDS011;30152;52.066;5.358;2023-05-20T10:21:33;7.95;;;1.92;;
44446;SDS011;30152;52.066;5.358;2023-05-20T10:24:06;4.32;;;1.55;;
44446;SDS011;30152;52.066;5.358;2023-05-20T10:26:36;6.32;;;2.10;;
44446;SDS011;30152;52.066;5.358;2023-05-20T10:29:18;5.43;;;1.58;;
44446;SDS011;30152;52.066;5.358;2023-05-20T10:31:44;9.85;;;2.03;;
44446;SDS011;30152;52.066;5.358;2023-05-20T10:34:14;6.65;;;1.67;;
44446;SDS011;30152;52.066;5.358;2023-05-20T10:36:56;4.75;;;1.83;;
44446;SDS011;30152;52.066;5.358;2023-05-20T10:39:29;6.10;;;1.65;;
44446;SDS011;30152;52.066;5.358;2023-05-20T10:42:07;8.05;;;2.10;;
44446;SDS011;30152;52.066;5.358;2023-05-20T10:44:43;4.72;;;1.60;;
44446;SDS011;30152;52.066;5.358;2023-05-20T10:47:10;5.05;;;1.50;;
44446;SDS011;30152;52.066;5.358;2023-05-20T10:49:54;5.13;;;1.45;;
44446;SDS011;30152;52.066;5.358;2023-05-20T10:52:20;6.07;;;1.35;;
44446;SDS011;30152;52.066;5.358;2023-05-20T10:54:47;8.70;;;2.13;;
44446;SDS011;30152;52.066;5.358;2023-05-20T10:59:46;6.53;;;1.40;;
44446;SDS011;30152;52.066;5.358;2023-05-20T11:02:12;3.92;;;1.33;;
44446;SDS011;30152;52.066;5.358;2023-05-20T11:04:43;4.38;;;1.38;;
44446;SDS011;30152;52.066;5.358;2023-05-20T11:07:09;5.50;;;1.70;;
44446;SDS011;30152;52.066;5.358;2023-05-20T11:09:35;10.02;;;2.60;;
44446;SDS011;30152;52.066;5.358;2023-05-20T11:12:01;6.63;;;1.63;;
44446;SDS011;30152;52.066;5.358;2023-05-20T11:14:27;8.10;;;1.95;;
44446;SDS011;30152;52.066;5.358;2023-05-20T11:16:59;11.23;;;1.70;;
44446;SDS011;30152;52.066;5.358;2023-05-20T11:19:25;4.45;;;1.60;;
44446;SDS011;30152;52.066;5.358;2023-05-20T11:21:51;4.75;;;1.63;;
44446;SDS011;30152;52.066;5.358;2023-05-20T11:24:23;4.28;;;1.40;;
44446;SDS011;30152;52.066;5.358;2023-05-20T11:26:53;5.93;;;1.75;;
44446;SDS011;30152;52.066;5.358;2023-05-20T11:29:19;5.50;;;1.90;;
44446;SDS011;30152;52.066;5.358;2023-05-20T11:31:47;7.00;;;1.80;;
44446;SDS011;30152;52.066;5.358;2023-05-20T11:34:18;6.82;;;1.52;;
44446;SDS011;30152;52.066;5.358;2023-05-20T11:36:47;8.07;;;1.75;;
44446;SDS011;30152;52.066;5.358;2023-05-20T11:39:16;4.40;;;1.33;;
44446;SDS011;30152;52.066;5.358;2023-05-20T11:41:42;7.10;;;1.88;;
44446;SDS011;30152;52.066;5.358;2023-05-20T11:44:10;5.05;;;1.67;;
44446;SDS011;30152;52.066;5.358;2023-05-20T11:46:40;8.45;;;2.13;;
44446;SDS011;30152;52.066;5.358;2023-05-20T11:49:06;6.63;;;1.70;;
44446;SDS011;30152;52.066;5.358;2023-05-20T11:51:32;8.82;;;1.83;;
44446;SDS011;30152;52.066;5.358;2023-05-20T11:54:02;4.20;;;1.70;;
44446;SDS011;30152;52.066;5.358;2023-05-20T11:56:29;5.80;;;1.77;;
44446;SDS011;30152;52.066;5.358;2023-05-20T11:58:58;5.57;;;1.83;;
44446;SDS011;30152;52.066;5.358;2023-05-20T12:01:24;5.53;;;2.17;;
44446;SDS011;30152;52.066;5.358;2023-05-20T12:03:52;7.88;;;1.98;;
44446;SDS011;30152;52.066;5.358;2023-05-20T12:06:18;6.13;;;1.90;;
44446;SDS011;30152;52.066;5.358;2023-05-20T12:08:44;6.97;;;2.15;;
44446;SDS011;30152;52.066;5.358;2023-05-20T12:11:10;7.43;;;1.77;;
44446;SDS011;30152;52.066;5.358;2023-05-20T12:13:36;5.10;;;1.83;;
44446;SDS011;30152;52.066;5.358;2023-05-20T12:16:01;5.57;;;1.65;;
44446;SDS011;30152;52.066;5.358;2023-05-20T12:18:29;5.95;;;1.92;;
44446;SDS011;30152;52.066;5.358;2023-05-20T12:20:55;7.32;;;1.80;;
44446;SDS011;30152;52.066;5.358;2023-05-20T12:23:21;5.82;;;1.60;;
44446;SDS011;30152;52.066;5.358;2023-05-20T12:25:46;5.88;;;1.65;;
44446;SDS011;30152;52.066;5.358;2023-05-20T12:28:13;7.18;;;1.77;;
44446;SDS011;30152;52.066;5.358;2023-05-20T12:30:40;4.95;;;1.55;;
44446;SDS011;30152;52.066;5.358;2023-05-20T12:33:06;5.43;;;1.67;;
44446;SDS011;30152;52.066;5.358;2023-05-20T12:35:40;7.90;;;1.40;;
44446;SDS011;30152;52.066;5.358;2023-05-20T12:38:06;6.32;;;1.67;;
44446;SDS011;30152;52.066;5.358;2023-05-20T12:40:32;5.60;;;1.40;;
44446;SDS011;30152;52.066;5.358;2023-05-20T12:43:03;10.18;;;1.70;;
44446;SDS011;30152;52.066;5.358;2023-05-20T12:45:29;8.57;;;1.67;;
44446;SDS011;30152;52.066;5.358;2023-05-20T12:47:55;7.05;;;1.60;;
44446;SDS011;30152;52.066;5.358;2023-05-20T12:50:21;4.55;;;1.40;;
44446;SDS011;30152;52.066;5.358;2023-05-20T12:52:48;8.15;;;1.48;;
44446;SDS011;30152;52.066;5.358;2023-05-20T12:55:14;4.28;;;1.50;;
44446;SDS011;30152;52.066;5.358;2023-05-20T12:57:40;4.35;;;1.60;;
44446;SDS011;30152;52.066;5.358;2023-05-20T13:00:09;5.63;;;1.80;;
44446;SDS011;30152;52.066;5.358;2023-05-20T13:02:36;5.53;;;1.60;;
44446;SDS011;30152;52.066;5.358;2023-05-20T13:05:02;6.22;;;1.80;;
44446;SDS011;30152;52.066;5.358;2023-05-20T13:07:29;5.97;;;1.85;;
44446;SDS011;30152;52.066;5.358;2023-05-20T13:09:56;8.18;;;1.23;;
44446;SDS011;30152;52.066;5.358;2023-05-20T13:12:21;7.97;;;1.60;;
44446;SDS011;30152;52.066;5.358;2023-05-20T13:14:47;6.15;;;1.38;;
44446;SDS011;30152;52.066;5.358;2023-05-20T13:17:13;5.25;;;1.60;;
44446;SDS011;30152;52.066;5.358;2023-05-20T13:19:38;8.80;;;1.70;;
44446;SDS011;30152;52.066;5.358;2023-05-20T13:22:04;5.75;;;2.00;;
44446;SDS011;30152;52.066;5.358;2023-05-20T13:24:30;9.30;;;2.40;;
44446;SDS011;30152;52.066;5.358;2023-05-20T13:26:56;8.68;;;1.75;;
44446;SDS011;30152;52.066;5.358;2023-05-20T13:29:22;5.75;;;1.50;;
44446;SDS011;30152;52.066;5.358;2023-05-20T13:31:48;5.80;;;1.63;;
44446;SDS011;30152;52.066;5.358;2023-05-20T13:34:14;6.75;;;2.13;;
44446;SDS011;30152;52.066;5.358;2023-05-20T13:36:40;5.40;;;1.52;;
44446;SDS011;30152;52.066;5.358;2023-05-20T13:39:06;6.95;;;1.77;;
44446;SDS011;30152;52.066;5.358;2023-05-20T13:41:32;11.40;;;1.70;;
44446;SDS011;30152;52.066;5.358;2023-05-20T13:43:57;4.57;;;1.70;;
44446;SDS011;30152;52.066;5.358;2023-05-20T13:46:23;4.80;;;1.73;;
44446;SDS011;30152;52.066;5.358;2023-05-20T13:48:49;5.10;;;1.80;;
44446;SDS011;30152;52.066;5.358;2023-05-20T13:51:14;5.68;;;1.92;;
44446;SDS011;30152;52.066;5.358;2023-05-20T13:53:40;9.27;;;1.80;;
44446;SDS011;30152;52.066;5.358;2023-05-20T13:56:05;8.48;;;1.60;;
44446;SDS011;30152;52.066;5.358;2023-05-20T13:58:35;5.18;;;1.48;;
44446;SDS011;30152;52.066;5.358;2023-05-20T14:01:01;6.75;;;1.45;;
44446;SDS011;30152;52.066;5.358;2023-05-20T14:03:28;5.03;;;1.60;;
44446;SDS011;30152;52.066;5.358;2023-05-20T14:05:54;6.05;;;1.58;;
44446;SDS011;30152;52.066;5.358;2023-05-20T14:08:20;5.75;;;1.67;;
44446;SDS011;30152;52.066;5.358;2023-05-20T14:10:46;7.35;;;1.55;;
44446;SDS011;30152;52.066;5.358;2023-05-20T14:13:12;4.53;;;1.70;;
44446;SDS011;30152;52.066;5.358;2023-05-20T14:15:37;6.63;;;1.65;;
44446;SDS011;30152;52.066;5.358;2023-05-20T14:18:03;5.55;;;1.60;;
44446;SDS011;30152;52.066;5.358;2023-05-20T14:20:29;4.35;;;1.25;;
44446;SDS011;30152;52.066;5.358;2023-05-20T14:22:55;5.78;;;1.92;;
44446;SDS011;30152;52.066;5.358;2023-05-20T14:25:21;6.70;;;1.40;;
44446;SDS011;30152;52.066;5.358;2023-05-20T14:27:48;5.57;;;1.45;;
44446;SDS011;30152;52.066;5.358;2023-05-20T14:30:14;4.50;;;1.60;;
44446;SDS011;30152;52.066;5.358;2023-05-20T14:32:40;4.15;;;1.75;;
44446;SDS011;30152;52.066;5.358;2023-05-20T14:35:06;5.65;;;1.15;;
44446;SDS011;30152;52.066;5.358;2023-05-20T14:37:32;6.45;;;1.35;;
44446;SDS011;30152;52.066;5.358;2023-05-20T14:39:57;6.75;;;1.63;;
44446;SDS011;30152;52.066;5.358;2023-05-20T14:42:23;5.05;;;1.70;;
44446;SDS011;30152;52.066;5.358;2023-05-20T14:44:48;7.03;;;1.60;;
44446;SDS011;30152;52.066;5.358;2023-05-20T14:47:14;5.65;;;1.40;;
44446;SDS011;30152;52.066;5.358;2023-05-20T14:49:43;5.28;;;1.58;;
44446;SDS011;30152;52.066;5.358;2023-05-20T14:52:09;6.03;;;1.60;;
44446;SDS011;30152;52.066;5.358;2023-05-20T14:54:35;5.68;;;1.20;;
44446;SDS011;30152;52.066;5.358;2023-05-20T14:57:00;5.15;;;1.67;;
44446;SDS011;30152;52.066;5.358;2023-05-20T14:59:26;6.15;;;1.25;;
44446;SDS011;30152;52.066;5.358;2023-05-20T15:01:52;6.82;;;1.45;;
44446;SDS011;30152;52.066;5.358;2023-05-20T15:04:17;4.47;;;1.45;;
44446;SDS011;30152;52.066;5.358;2023-05-20T15:06:43;6.13;;;1.27;;
44446;SDS011;30152;52.066;5.358;2023-05-20T15:09:09;4.40;;;1.52;;
44446;SDS011;30152;52.066;5.358;2023-05-20T15:11:34;5.97;;;1.25;;
44446;SDS011;30152;52.066;5.358;2023-05-20T15:14:00;3.45;;;1.23;;
44446;SDS011;30152;52.066;5.358;2023-05-20T15:16:26;5.68;;;1.65;;
44446;SDS011;30152;52.066;5.358;2023-05-20T15:18:52;4.35;;;1.30;;
44446;SDS011;30152;52.066;5.358;2023-05-20T15:21:17;5.65;;;1.48;;
44446;SDS011;30152;52.066;5.358;2023-05-20T15:23:43;8.10;;;1.42;;
44446;SDS011;30152;52.066;5.358;2023-05-20T15:26:09;7.15;;;1.50;;
44446;SDS011;30152;52.066;5.358;2023-05-20T15:28:38;5.55;;;1.65;;
44446;SDS011;30152;52.066;5.358;2023-05-20T15:31:04;7.82;;;2.03;;
44446;SDS011;30152;52.066;5.358;2023-05-20T15:33:30;4.05;;;1.20;;
44446;SDS011;30152;52.066;5.358;2023-05-20T15:35:56;6.30;;;1.55;;
44446;SDS011;30152;52.066;5.358;2023-05-20T15:38:21;3.67;;;1.00;;
44446;SDS011;30152;52.066;5.358;2023-05-20T15:40:47;5.35;;;1.30;;
44446;SDS011;30152;52.066;5.358;2023-05-20T15:43:14;4.03;;;1.23;;
44446;SDS011;30152;52.066;5.358;2023-05-20T15:45:40;5.32;;;1.35;;
44446;SDS011;30152;52.066;5.358;2023-05-20T15:48:06;5.65;;;2.38;;
44446;SDS011;30152;52.066;5.358;2023-05-20T15:50:33;4.70;;;1.70;;
44446;SDS011;30152;52.066;5.358;2023-05-20T15:52:59;7.30;;;1.55;;
44446;SDS011;30152;52.066;5.358;2023-05-20T15:55:24;3.63;;;1.20;;
44446;SDS011;30152;52.066;5.358;2023-05-20T15:57:50;4.30;;;1.20;;
44446;SDS011;30152;52.066;5.358;2023-05-20T16:00:17;4.38;;;1.60;;
44446;SDS011;30152;52.066;5.358;2023-05-20T16:02:43;4.63;;;1.30;;
44446;SDS011;30152;52.066;5.358;2023-05-20T16:05:09;4.95;;;1.30;;
44446;SDS011;30152;52.066;5.358;2023-05-20T16:07:35;5.18;;;1.20;;
44446;SDS011;30152;52.066;5.358;2023-05-20T16:10:01;5.47;;;1.58;;
44446;SDS011;30152;52.066;5.358;2023-05-20T16:12:27;5.43;;;1.48;;
44446;SDS011;30152;52.066;5.358;2023-05-20T16:14:53;5.72;;;1.20;;
44446;SDS011;30152;52.066;5.358;2023-05-20T16:17:19;4.53;;;1.50;;
44446;SDS011;30152;52.066;5.358;2023-05-20T16:19:45;6.70;;;1.40;;
44446;SDS011;30152;52.066;5.358;2023-05-20T16:22:11;3.92;;;1.17;;
44446;SDS011;30152;52.066;5.358;2023-05-20T16:24:37;7.95;;;1.40;;
44446;SDS011;30152;52.066;5.358;2023-05-20T16:27:03;4.38;;;1.70;;
44446;SDS011;30152;52.066;5.358;2023-05-20T16:29:29;3.92;;;1.00;;
44446;SDS011;30152;52.066;5.358;2023-05-20T16:31:55;5.13;;;1.27;;
44446;SDS011;30152;52.066;5.358;2023-05-20T16:34:21;7.30;;;2.25;;
44446;SDS011;30152;52.066;5.358;2023-05-20T16:36:46;5.40;;;1.58;;
44446;SDS011;30152;52.066;5.358;2023-05-20T16:39:12;5.30;;;1.42;;
44446;SDS011;30152;52.066;5.358;2023-05-20T16:41:39;4.32;;;0.95;;
44446;SDS011;30152;52.066;5.358;2023-05-20T16:44:05;4.55;;;1.38;;
44446;SDS011;30152;52.066;5.358;2023-05-20T16:46:31;4.65;;;1.27;;
44446;SDS011;30152;52.066;5.358;2023-05-20T16:48:56;5.53;;;1.30;;
44446;SDS011;30152;52.066;5.358;2023-05-20T16:51:22;3.92;;;1.38;;
44446;SDS011;30152;52.066;5.358;2023-05-20T16:53:48;4.47;;;1.73;;
44446;SDS011;30152;52.066;5.358;2023-05-20T16:56:13;4.35;;;1.45;;
44446;SDS011;30152;52.066;5.358;2023-05-20T16:58:39;3.40;;;1.33;;
44446;SDS011;30152;52.066;5.358;2023-05-20T17:01:05;6.30;;;1.60;;
44446;SDS011;30152;52.066;5.358;2023-05-20T17:03:32;5.10;;;1.27;;
44446;SDS011;30152;52.066;5.358;2023-05-20T17:05:58;5.28;;;1.45;;
44446;SDS011;30152;52.066;5.358;2023-05-20T17:08:23;5.80;;;1.83;;
44446;SDS011;30152;52.066;5.358;2023-05-20T17:10:48;6.60;;;1.45;;
44446;SDS011;30152;52.066;5.358;2023-05-20T17:13:14;5.32;;;1.33;;
44446;SDS011;30152;52.066;5.358;2023-05-20T17:15:40;6.00;;;1.40;;
44446;SDS011;30152;52.066;5.358;2023-05-20T17:18:06;6.25;;;1.15;;
44446;SDS011;30152;52.066;5.358;2023-05-20T17:20:32;7.57;;;1.40;;
44446;SDS011;30152;52.066;5.358;2023-05-20T17:22:57;4.57;;;1.50;;
44446;SDS011;30152;52.066;5.358;2023-05-20T17:25:23;6.65;;;1.63;;
44446;SDS011;30152;52.066;5.358;2023-05-20T17:27:49;4.47;;;1.50;;
44446;SDS011;30152;52.066;5.358;2023-05-20T17:30:15;6.43;;;1.40;;
44446;SDS011;30152;52.066;5.358;2023-05-20T17:32:41;4.50;;;1.45;;
44446;SDS011;30152;52.066;5.358;2023-05-20T17:35:07;4.57;;;1.70;;
44446;SDS011;30152;52.066;5.358;2023-05-20T17:37:33;4.47;;;1.35;;
44446;SDS011;30152;52.066;5.358;2023-05-20T17:39:59;6.50;;;1.50;;
44446;SDS011;30152;52.066;5.358;2023-05-20T17:42:25;4.00;;;1.20;;
44446;SDS011;30152;52.066;5.358;2023-05-20T17:44:51;4.93;;;1.77;;
44446;SDS011;30152;52.066;5.358;2023-05-20T17:47:17;11.35;;;1.42;;
44446;SDS011;30152;52.066;5.358;2023-05-20T17:49:42;6.35;;;1.63;;
44446;SDS011;30152;52.066;5.358;2023-05-20T17:52:09;4.85;;;1.60;;
44446;SDS011;30152;52.066;5.358;2023-05-20T17:54:34;6.78;;;1.95;;
44446;SDS011;30152;52.066;5.358;2023-05-20T17:57:00;6.13;;;2.20;;
44446;SDS011;30152;52.066;5.358;2023-05-20T17:59:26;6.13;;;1.48;;
44446;SDS011;30152;52.066;5.358;2023-05-20T18:01:51;5.82;;;1.95;;
44446;SDS011;30152;52.066;5.358;2023-05-20T18:04:17;6.30;;;1.60;;
44446;SDS011;30152;52.066;5.358;2023-05-20T18:06:45;7.35;;;2.30;;
44446;SDS011;30152;52.066;5.358;2023-05-20T18:09:11;6.65;;;2.13;;
44446;SDS011;30152;52.066;5.358;2023-05-20T18:11:37;6.47;;;1.60;;
44446;SDS011;30152;52.066;5.358;2023-05-20T18:14:03;5.18;;;2.00;;
44446;SDS011;30152;52.066;5.358;2023-05-20T18:16:28;7.47;;;1.77;;
44446;SDS011;30152;52.066;5.358;2023-05-20T18:18:54;4.55;;;1.80;;
44446;SDS011;30152;52.066;5.358;2023-05-20T18:21:21;6.38;;;1.60;;
44446;SDS011;30152;52.066;5.358;2023-05-20T18:23:47;4.68;;;1.60;;
44446;SDS011;30152;52.066;5.358;2023-05-20T18:26:13;12.40;;;2.10;;
44446;SDS011;30152;52.066;5.358;2023-05-20T18:28:39;4.63;;;1.75;;
44446;SDS011;30152;52.066;5.358;2023-05-20T18:31:05;5.80;;;1.83;;
44446;SDS011;30152;52.066;5.358;2023-05-20T18:33:31;4.93;;;1.73;;
44446;SDS011;30152;52.066;5.358;2023-05-20T18:35:57;6.50;;;1.85;;
44446;SDS011;30152;52.066;5.358;2023-05-20T18:38:22;7.75;;;1.38;;
44446;SDS011;30152;52.066;5.358;2023-05-20T18:40:48;5.80;;;1.75;;
44446;SDS011;30152;52.066;5.358;2023-05-20T18:43:14;6.82;;;1.55;;
44446;SDS011;30152;52.066;5.358;2023-05-20T18:45:40;6.82;;;1.63;;
44446;SDS011;30152;52.066;5.358;2023-05-20T18:48:06;6.15;;;1.92;;
44446;SDS011;30152;52.066;5.358;2023-05-20T18:50:31;6.07;;;1.98;;
44446;SDS011;30152;52.066;5.358;2023-05-20T18:52:57;6.50;;;1.73;;
44446;SDS011;30152;52.066;5.358;2023-05-20T18:55:23;5.28;;;1.60;;
44446;SDS011;30152;52.066;5.358;2023-05-20T18:57:49;4.90;;;2.13;;
44446;SDS011;30152;52.066;5.358;2023-05-20T19:00:15;6.85;;;2.30;;
44446;SDS011;30152;52.066;5.358;2023-05-20T19:02:42;14.60;;;7.47;;
44446;SDS011;30152;52.066;5.358;2023-05-20T19:05:08;14.23;;;5.80;;
44446;SDS011;30152;52.066;5.358;2023-05-20T19:07:35;9.07;;;3.28;;
44446;SDS011;30152;52.066;5.358;2023-05-20T19:10:01;6.47;;;2.28;;
44446;SDS011;30152;52.066;5.358;2023-05-20T19:12:27;5.45;;;2.05;;
44446;SDS011;30152;52.066;5.358;2023-05-20T19:14:53;8.27;;;2.55;;
44446;SDS011;30152;52.066;5.358;2023-05-20T19:17:19;5.22;;;2.30;;
44446;SDS011;30152;52.066;5.358;2023-05-20T19:19:45;10.38;;;2.33;;
44446;SDS011;30152;52.066;5.358;2023-05-20T19:22:11;8.43;;;2.65;;
44446;SDS011;30152;52.066;5.358;2023-05-20T19:24:37;8.38;;;2.58;;
44446;SDS011;30152;52.066;5.358;2023-05-20T19:27:04;4.57;;;2.10;;
44446;SDS011;30152;52.066;5.358;2023-05-20T19:29:29;4.50;;;1.88;;
44446;SDS011;30152;52.066;5.358;2023-05-20T19:31:55;5.03;;;2.03;;
44446;SDS011;30152;52.066;5.358;2023-05-20T19:34:22;5.53;;;1.90;;
44446;SDS011;30152;52.066;5.358;2023-05-20T19:36:48;4.72;;;1.60;;
44446;SDS011;30152;52.066;5.358;2023-05-20T19:39:14;5.65;;;2.00;;
44446;SDS011;30152;52.066;5.358;2023-05-20T19:41:40;5.57;;;2.00;;
44446;SDS011;30152;52.066;5.358;2023-05-20T19:44:06;4.07;;;1.70;;
44446;SDS011;30152;52.066;5.358;2023-05-20T19:46:32;6.65;;;2.08;;
44446;SDS011;30152;52.066;5.358;2023-05-20T19:48:58;6.10;;;1.95;;
44446;SDS011;30152;52.066;5.358;2023-05-20T19:51:24;7.07;;;2.35;;
44446;SDS011;30152;52.066;5.358;2023-05-20T19:53:50;6.57;;;2.15;;
44446;SDS011;30152;52.066;5.358;2023-05-20T19:56:15;7.88;;;2.28;;
44446;SDS011;30152;52.066;5.358;2023-05-20T19:58:44;7.32;;;2.05;;
44446;SDS011;30152;52.066;5.358;2023-05-20T20:01:10;8.55;;;1.90;;
44446;SDS011;30152;52.066;5.358;2023-05-20T20:03:37;5.05;;;2.13;;
44446;SDS011;30152;52.066;5.358;2023-05-20T20:06:03;7.47;;;2.42;;
44446;SDS011;30152;52.066;5.358;2023-05-20T20:08:29;4.95;;;2.00;;
44446;SDS011;30152;52.066;5.358;2023-05-20T20:10:55;4.85;;;1.90;;
44446;SDS011;30152;52.066;5.358;2023-05-20T20:13:21;5.13;;;1.98;;
44446;SDS011;30152;52.066;5.358;2023-05-20T20:15:47;5.10;;;1.95;;
44446;SDS011;30152;52.066;5.358;2023-05-20T20:18:12;7.68;;;1.98;;
44446;SDS011;30152;52.066;5.358;2023-05-20T20:20:38;6.22;;;1.65;;
44446;SDS011;30152;52.066;5.358;2023-05-20T20:23:05;7.22;;;1.98;;
44446;SDS011;30152;52.066;5.358;2023-05-20T20:25:32;5.63;;;2.20;;
44446;SDS011;30152;52.066;5.358;2023-05-20T20:28:02;5.05;;;2.15;;
44446;SDS011;30152;52.066;5.358;2023-05-20T20:30:28;5.55;;;1.80;;
44446;SDS011;30152;52.066;5.358;2023-05-20T20:32:54;5.40;;;1.67;;
44446;SDS011;30152;52.066;5.358;2023-05-20T20:35:21;6.50;;;1.83;;
44446;SDS011;30152;52.066;5.358;2023-05-20T20:37:48;4.60;;;1.73;;
